Weather observations for the past three days for
Waterville, Waterville Robert LaFleur Airport
Metric (Imperial)
Date Time (edt) Wind (kph) Vis. (km) Weather Sky Cond. Temperature (ºC) Relative Humidity Wind Chill (°C) Heat Index (°C) Pressure Precipitation (cm)
Air Dwpt 6 hour altimeter (cm) sea level (mb) 1 hr 3 hr 6 hr
Max. Min.
06 04:56 S 6 16.09 Light Rain OVC100 11.7 8.9 83% 75.64 1008.8
06 03:56 SW 6 16.09 Fair CLR 11.7 8.9 83% 75.67 1009.2
06 02:56 S 9 16.09 Partly Cloudy SCT100 12.2 8.9 80% 75.57 1007.8
06 01:56 S 7 16.09 Fair CLR 12.8 8.9 17.8 12.8 77% 75.54 1007.6
06 00:56 S 11 16.09 Fair CLR 13.3 9.4 77% 75.54 1007.7
05 23:56 S 7 16.09 Mostly Cloudy BKN075 13.9 10 78% 75.51 1007.2
05 22:56 SW 7 16.09 Overcast OVC075 14.4 10 75% 75.51 1007.3
05 21:56 Vrbl 11 14.48 Light Rain OVC080 15.6 10 70% 75.54 1007.5
05 20:56 S 6 16.09 Overcast OVC110 16.7 13.3 80% 75.46 1006.5
05 19:56 SW 7 16.09 Overcast FEW046 BKN070 OVC090 17.8 12.8 23.9 17.8 73% 75.46 1006.4
05 18:56 SW 20 G 43 16.09 Mostly Cloudy SCT055 BKN095 18.9 9.4 54% 75.41 1005.9
05 17:56 S 28 G 41 16.09 Fair CLR 20 9.4 51% 75.18 1002.9
05 16:56 S 24 G 52 16.09 Fair CLR 21.7 10 47% 75.18 1002.8
05 15:56 S 24 G 46 16.09 Fair CLR 22.8 10 44% 75.21 1003.0
05 14:56 S 22 G 43 16.09 Fair CLR 23.9 10.6 43% 25 75.23 1003.5
05 13:56 S 22 G 33 16.09 Fair CLR 22.8 10 22.8 12.8 44% 75.29 1004.1
05 12:56 SW 24 G 35 16.09 Fair CLR 21.7 9.4 46% 75.36 1005.2
05 11:56 S 17 G 26 16.09 Fair CLR 21.1 9.4 47% 75.41 1005.8
05 10:56 S 15 G 26 16.09 Fair CLR 20 8.3 47% 75.46 1006.5
05 09:56 SW 13 G 28 16.09 Fair CLR 18.3 7.8 51% 75.49 1006.8
05 08:56 SW 17 16.09 Mostly Cloudy BKN110 15.6 7.2 58% 75.49 1007.0
05 07:56 S 13 16.09 Fair CLR 12.8 6.7 12.8 7.8 67% 75.54 1007.5
05 06:56 SW 17 16.09 Fair CLR 10.6 6.1 74% 75.54 1007.5
05 05:56 S 9 16.09 Fair CLR 8.9 5.6 80% 8 75.51 1007.3
05 04:56 S 11 16.09 Fair CLR 9.4 5.6 77% 8 75.54 1007.5
05 03:56 SW 9 16.09 Fair CLR 7.8 5 83% 6 75.54 1007.7
05 02:56 S 7 16.09 Fair CLR 8.9 5 77% 8 75.51 1007.5
05 01:56 SW 9 16.09 Fair CLR 7.8 5 14.4 7.8 83% 6 75.51 1007.5
05 00:56 SW 11 16.09 Fair CLR 8.3 5.6 83% 7 75.51 1007.3
04 23:56 S 7 16.09 Fair CLR 10 5.6 74% 9 75.49 1007.0
04 22:56 Calm 16.09 Partly Cloudy SCT120 10.6 6.1 74% 75.49 1007.0
04 21:56 Calm 16.09 Overcast OVC085 10.6 6.1 74% 75.49 1007.1
04 20:56 Calm 16.09 Fair CLR 12.8 5 59% 75.44 1006.5
04 19:56 Calm 16.09 Fair CLR 14.4 5 17.8 11.7 53% 75.39 1005.5
04 18:56 W 6 16.09 Overcast OVC085 16.7 5 46% 75.36 1005.1
04 17:56 W 7 16.09 Overcast BKN060 OVC075 17.2 5.6 47% 75.36 1005.1
04 16:56 W 24 G 31 16.09 Partly Cloudy SCT060 16.7 5.6 48% 75.34 1004.9
04 15:56 SW 26 G 33 16.09 Partly Cloudy SCT055 16.7 6.1 50% 75.31 1004.7
04 14:56 SW 22 16.09 A Few Clouds FEW070 15 7.2 60% 75.36 1005.2
04 13:56 SW 17 16.09 Overcast OVC055 11.7 8.3 13.9 7.8 80% 75.39 1005.8
04 12:56 W 15 16.09 Light Rain OVC050 11.7 7.8 77% 75.39 1005.9
04 11:56 SW 20 G 37 16.09 Mostly Cloudy BKN100 13.3 4.4 55% 75.31 1004.7
04 10:56 S 17 16.09 Overcast FEW055 OVC110 12.8 2.8 51% 75.39 1005.6
04 09:56 Vrbl 7 16.09 Overcast OVC050 10.6 0.6 50% 75.46 1006.7
04 08:56 SW 11 16.09 Overcast OVC100 8.9 -0.6 52% 7 75.51 1007.2
04 07:56 S 9 16.09 Mostly Cloudy BKN080 7.8 -0.6 7.8 0.6 56% 6 75.51 1007.3
04 06:56 Calm 16.09 A Few Clouds FEW080 4.4 -0.6 70% 75.51 1007.5
04 05:56 SW 7 16.09 Fair CLR 1.7 -2.2 76% -0 75.51 1007.4
04 04:56 SW 7 16.09 Fair CLR 0.6 -2.2 82% -1 75.49 1007.1
04 03:56 SW 9 16.09 Fair CLR 0.6 -1.7 85% -2 75.49 1007.1
04 02:56 SW 7 16.09 Fair CLR 2.2 -1.7 76% 0 75.46 1007.0
04 01:56 SW 7 16.09 Fair CLR 3.9 -2.2 8.3 3.3 65% 2 75.46 1006.9
04 00:56 SW 11 16.09 Fair CLR 3.9 -2.2 65% 1 75.46 1006.8
03 23:56 W 6 16.09 Fair CLR 5 -2.8 57% 75.44 1006.6
03 22:56 W 9 16.09 Fair CLR 5.6 -3.3 53% 4 75.41 1006.2
03 21:56 W 9 16.09 Fair CLR 6.7 -3.3 49% 5 75.41 1006.1
03 20:56 NW 11 16.09 Mostly Cloudy BKN070 7.8 -3.3 46% 6 75.36 1005.5
03 19:56 NW 15 G 26 16.09 Overcast OVC070 8.3 -3.9 11.7 7.2 42% 6 75.29 1004.5
03 18:56 NW 20 G 33 16.09 Overcast OVC075 10 -3.9 38% 8 75.23 1003.7
03 17:56 NW 19 G 35 16.09 Overcast OVC070 10.6 -2.8 39% 75.16 1002.6
03 16:56 N 22 G 33 16.09 Overcast FEW055 OVC090 11.1 -1.1 43% 75.13 1002.4
03 15:56 NW 13 G 26 16.09 Overcast OVC055 10 1.7 57% 8 75.18 1003.1
03 14:56 Vrbl 9 16.09 Overcast OVC060 8.3 4.4 77% 7 75.23 1003.9
03 13:56 N 19 16.09 Overcast FEW018 SCT043 OVC050 7.2 3.9 7.2 5 80% 4 75.26 1004.1
03 12:56 N 26 G 31 16.09 Light Rain FEW013 BKN017 OVC036 6.1 4.4 89% 2 75.26 1004.2
03 11:56 N 24 G 30 16.09 Light Rain BKN013 BKN022 OVC027 5.6 3.9 89% 2 75.31 1004.8
03 10:56 N 30 16.09 Light Rain BKN013 OVC034 5 3.3 89% 0 75.34 1005.1
03 09:56 N 24 16.09 Light Rain FEW010 BKN027 OVC033 5 3.9 93% 1 75.39 1005.9
03 08:56 N 22 16.09 Light Rain FEW006 SCT009 OVC027 5 3.9 93% 1 75.44 1006.5
03 07:56 N 19 16.09 Light Rain OVC022 5 4.4 5 5 96% 2 75.46 1006.7
03 06:56 N 13 16.09 Light Rain OVC005 5 4.4 96% 2 75.49 1007.1
03 05:56 N 11 14.48 Light Rain OVC003 5 4.4 96% 3 75.49 1007.0
Date Time (edt) Wind (kph) Vis. (km) Weather Sky Cond. Air Dwpt Max. Min. Relative Humidity Wind Chill (°C) Heat Index (°C) altimeter (cm) sea level (mb) 1 hr 3 hr 6 hr
6 hour
Temperature (ºC) Pressure Precipitation (cm)